createdAt,value
2018-12-13T00:00:26.955Z,72.00
2018-12-13T00:02:54.427Z,72.30
2018-12-13T00:05:21.958Z,71.00
2018-12-13T00:07:49.487Z,70.80
2018-12-13T00:10:17.028Z,71.10
2018-12-13T00:12:44.536Z,69.80
2018-12-13T00:15:12.003Z,71.00
2018-12-13T00:17:39.456Z,72.00
2018-12-13T00:20:07.034Z,72.40
2018-12-13T00:22:34.480Z,72.40
2018-12-13T00:25:02.028Z,72.20
2018-12-13T00:27:29.488Z,71.60
2018-12-13T00:29:56.973Z,71.10
2018-12-13T00:32:24.504Z,70.90
2018-12-13T00:34:51.988Z,70.30
2018-12-13T00:37:19.496Z,70.40
2018-12-13T00:39:47.009Z,71.00
2018-12-13T00:42:14.468Z,70.80
2018-12-13T00:44:41.970Z,70.90
2018-12-13T00:47:09.444Z,71.50
2018-12-13T00:49:36.903Z,71.60
2018-12-13T00:52:04.393Z,71.00
2018-12-13T00:54:31.847Z,69.60
2018-12-13T00:56:59.357Z,70.20
2018-12-13T00:59:26.804Z,70.90
2018-12-13T01:01:54.473Z,71.50
2018-12-13T01:04:21.956Z,72.00
2018-12-13T01:06:49.420Z,71.80
2018-12-13T01:09:17.120Z,72.40
2018-12-13T01:11:44.805Z,73.20
2018-12-13T01:14:12.261Z,72.60
2018-12-13T01:16:39.718Z,72.30
2018-12-13T01:19:07.270Z,71.50
2018-12-13T01:21:34.841Z,72.00
2018-12-13T01:24:02.351Z,72.70
2018-12-13T01:26:29.856Z,72.00
2018-12-13T01:28:57.378Z,71.20
2018-12-13T01:31:24.855Z,70.40
2018-12-13T01:33:52.348Z,69.90
2018-12-13T01:36:19.821Z,69.70
2018-12-13T01:38:47.263Z,69.90
2018-12-13T01:41:14.792Z,69.90
2018-12-13T01:43:42.295Z,69.80
2018-12-13T01:46:09.729Z,69.50
2018-12-13T01:48:37.189Z,69.90
2018-12-13T01:51:04.642Z,71.00
2018-12-13T01:53:32.178Z,71.40
2018-12-13T01:55:59.640Z,71.80
2018-12-13T01:58:27.105Z,72.60
2018-12-13T02:00:54.555Z,72.80
2018-12-13T02:03:22.093Z,73.50
2018-12-13T02:05:49.554Z,73.80
2018-12-13T02:08:17.090Z,73.40
2018-12-13T02:10:44.594Z,73.70
2018-12-13T02:13:12.089Z,72.90
2018-12-13T02:15:39.566Z,72.80
2018-12-13T02:18:07.033Z,72.90
2018-12-13T02:20:34.480Z,73.70
2018-12-13T02:23:01.981Z,73.10
2018-12-13T02:25:29.505Z,73.30
2018-12-13T02:27:56.973Z,74.10
2018-12-13T02:30:24.425Z,73.20
2018-12-13T02:32:51.895Z,73.50
2018-12-13T02:35:19.391Z,72.60
2018-12-13T02:37:46.846Z,72.20
2018-12-13T02:40:14.349Z,73.10
2018-12-13T02:42:41.824Z,72.50
2018-12-13T02:45:09.339Z,72.80
2018-12-13T02:47:36.809Z,71.50
2018-12-13T02:50:05.054Z,71.40
2018-12-13T02:52:32.531Z,71.50
2018-12-13T02:55:00.885Z,70.50
2018-12-13T02:57:28.332Z,70.20
2018-12-13T02:59:55.788Z,69.60
2018-12-13T03:02:23.279Z,68.90
2018-12-13T03:04:50.713Z,68.40
2018-12-13T03:07:18.185Z,68.50
2018-12-13T03:09:45.728Z,67.70
2018-12-13T03:12:13.184Z,67.30
2018-12-13T03:14:40.686Z,67.80
2018-12-13T03:17:08.168Z,67.40
2018-12-13T03:19:35.659Z,67.10
2018-12-13T03:22:03.171Z,67.10
2018-12-13T03:24:30.691Z,67.20
2018-12-13T03:26:58.130Z,66.90
2018-12-13T03:29:25.636Z,67.70
2018-12-13T03:31:53.163Z,67.50
2018-12-13T03:34:20.651Z,67.20
2018-12-13T03:36:48.156Z,66.70
2018-12-13T03:39:15.636Z,66.00
2018-12-13T03:41:43.143Z,66.90
2018-12-13T03:44:10.641Z,65.00
2018-12-13T03:46:38.132Z,66.50
2018-12-13T03:49:05.577Z,65.80
2018-12-13T03:51:33.286Z,64.60
2018-12-13T03:54:00.733Z,65.50
2018-12-13T03:56:28.228Z,66.00
2018-12-13T03:58:55.698Z,65.30
2018-12-13T04:01:23.319Z,66.20
2018-12-13T04:03:50.786Z,65.50
2018-12-13T04:06:18.296Z,65.90
2018-12-13T04:08:45.803Z,65.00
2018-12-13T04:11:13.288Z,64.70
2018-12-13T04:13:40.756Z,65.90
2018-12-13T04:16:08.218Z,65.60
2018-12-13T04:18:35.702Z,65.80
2018-12-13T04:21:03.204Z,65.90
2018-12-13T04:23:30.801Z,64.20
2018-12-13T04:25:58.320Z,64.70
2018-12-13T04:28:25.778Z,65.10
2018-12-13T04:30:53.277Z,65.30
2018-12-13T04:33:20.731Z,65.60
2018-12-13T04:35:48.227Z,65.80
2018-12-13T04:38:15.713Z,62.30
2018-12-13T04:40:43.215Z,62.60
2018-12-13T04:43:10.667Z,62.30
2018-12-13T04:45:38.138Z,62.50
2018-12-13T04:48:05.649Z,62.90
2018-12-13T04:50:33.146Z,62.40
2018-12-13T04:53:00.656Z,61.50
2018-12-13T04:55:28.113Z,62.30
2018-12-13T04:57:55.614Z,61.70
2018-12-13T05:00:23.080Z,61.90
2018-12-13T05:02:50.551Z,60.80
2018-12-13T05:05:18.048Z,60.30
2018-12-13T05:07:45.548Z,60.00
2018-12-13T05:10:20.895Z,60.30
2018-12-13T05:12:48.408Z,60.30
2018-12-13T05:15:15.865Z,61.70
2018-12-13T05:17:43.331Z,60.60
2018-12-13T05:20:10.782Z,60.70
2018-12-13T05:22:38.271Z,61.30
2018-12-13T05:25:05.712Z,60.90
2018-12-13T05:27:33.230Z,61.50
2018-12-13T05:30:00.686Z,61.70
2018-12-13T05:32:28.156Z,61.10
2018-12-13T05:34:55.618Z,60.70
2018-12-13T05:37:23.097Z,61.00
2018-12-13T05:39:50.552Z,61.10
2018-12-13T05:42:17.996Z,62.10
2018-12-13T05:44:45.436Z,60.60
2018-12-13T05:47:12.884Z,60.80
2018-12-13T05:49:40.327Z,60.50
2018-12-13T05:52:07.765Z,62.10
2018-12-13T05:54:35.247Z,62.10
2018-12-13T05:57:02.724Z,62.10
2018-12-13T05:59:30.148Z,61.80
2018-12-13T06:01:57.602Z,61.40
2018-12-13T06:04:25.049Z,61.20
2018-12-13T06:06:52.481Z,60.90
2018-12-13T06:09:19.908Z,60.90
2018-12-13T06:11:47.365Z,62.30
2018-12-13T06:14:14.839Z,61.70
2018-12-13T06:16:42.336Z,61.90
2018-12-13T06:19:09.788Z,62.30
2018-12-13T06:21:37.245Z,62.20
2018-12-13T06:24:04.663Z,63.50
2018-12-13T06:26:32.106Z,62.40
2018-12-13T06:28:59.577Z,61.20
2018-12-13T06:31:27.030Z,61.90
2018-12-13T06:33:54.489Z,62.70
2018-12-13T06:36:21.953Z,61.70
2018-12-13T06:38:49.381Z,61.30
2018-12-13T06:41:16.825Z,62.00
2018-12-13T06:43:44.287Z,62.10
2018-12-13T06:46:11.780Z,61.30
2018-12-13T06:48:39.249Z,61.30
2018-12-13T06:51:06.698Z,61.70
2018-12-13T06:53:34.180Z,61.80
2018-12-13T06:56:01.679Z,62.30
2018-12-13T06:58:29.187Z,62.30
2018-12-13T07:00:56.620Z,61.80
2018-12-13T07:03:24.048Z,60.80
2018-12-13T07:05:51.504Z,61.30
2018-12-13T07:08:18.965Z,62.40
2018-12-13T07:10:46.408Z,61.70
2018-12-13T07:13:13.860Z,62.00
2018-12-13T07:15:41.440Z,61.40
2018-12-13T07:18:08.896Z,61.80
2018-12-13T07:20:36.335Z,61.50
2018-12-13T07:23:03.853Z,62.30
2018-12-13T07:25:31.283Z,63.00
2018-12-13T07:27:58.728Z,62.70
2018-12-13T07:30:26.176Z,62.80
2018-12-13T07:32:53.636Z,63.60
2018-12-13T07:35:21.076Z,64.80
2018-12-13T07:37:48.533Z,65.50
2018-12-13T07:40:15.970Z,65.70
2018-12-13T07:42:43.400Z,66.10
2018-12-13T07:45:10.836Z,66.00
2018-12-13T07:47:38.295Z,65.70
2018-12-13T07:50:07.110Z,66.40
2018-12-13T07:52:34.626Z,67.00
2018-12-13T07:55:02.099Z,66.10
2018-12-13T07:57:29.544Z,65.30
2018-12-13T07:59:57.012Z,65.60
2018-12-13T08:02:24.453Z,64.80
2018-12-13T08:04:51.924Z,64.80
2018-12-13T08:07:19.371Z,65.20
2018-12-13T08:09:46.822Z,65.50
2018-12-13T08:12:14.292Z,64.30
2018-12-13T08:14:41.721Z,65.00
2018-12-13T08:17:09.158Z,64.20
2018-12-13T08:19:36.590Z,63.80
2018-12-13T08:22:04.110Z,63.10
2018-12-13T08:24:31.601Z,63.70
2018-12-13T08:26:59.049Z,63.40
2018-12-13T08:29:26.462Z,64.80
2018-12-13T08:31:53.999Z,64.40
2018-12-13T08:34:21.438Z,64.00
2018-12-13T08:36:49.172Z,64.30
2018-12-13T08:39:16.661Z,63.90
2018-12-13T08:41:44.178Z,64.00
2018-12-13T08:44:11.632Z,64.60
2018-12-13T08:46:39.080Z,65.10
2018-12-13T08:49:06.565Z,64.90
2018-12-13T08:51:34.024Z,64.20
2018-12-13T08:54:01.460Z,63.60
2018-12-13T08:56:28.944Z,63.90
2018-12-13T08:58:56.376Z,64.40
2018-12-13T09:01:23.855Z,64.40
2018-12-13T09:03:51.382Z,63.70
2018-12-13T09:06:18.836Z,64.30
2018-12-13T09:08:46.342Z,65.00
2018-12-13T09:11:13.808Z,65.10
2018-12-13T09:13:41.307Z,65.70
2018-12-13T09:16:08.744Z,66.50
2018-12-13T09:18:36.234Z,66.10
2018-12-13T09:21:03.764Z,66.00
2018-12-13T09:23:31.216Z,65.70
2018-12-13T09:25:58.705Z,66.40
2018-12-13T09:28:26.152Z,65.40
2018-12-13T09:30:53.596Z,65.40
2018-12-13T09:33:21.041Z,65.00
2018-12-13T09:35:48.505Z,65.50
2018-12-13T09:38:16.349Z,66.10
2018-12-13T09:40:45.876Z,66.10
2018-12-13T09:43:13.331Z,66.00
2018-12-13T09:45:41.145Z,65.90
2018-12-13T09:48:08.615Z,65.50
2018-12-13T09:50:36.082Z,64.90
2018-12-13T09:53:03.606Z,65.20
2018-12-13T09:55:31.026Z,66.10
2018-12-13T09:57:58.576Z,65.20
2018-12-13T10:00:26.073Z,65.60
2018-12-13T10:02:53.510Z,64.90
2018-12-13T10:05:21.221Z,64.60
2018-12-13T10:07:48.738Z,64.40
2018-12-13T10:10:16.171Z,65.10
2018-12-13T10:12:43.680Z,64.40
2018-12-13T10:15:11.152Z,64.50
2018-12-13T10:17:38.601Z,65.00
2018-12-13T10:20:06.104Z,63.80
2018-12-13T10:22:33.556Z,64.10
2018-12-13T10:25:00.999Z,63.70
2018-12-13T10:27:28.503Z,63.00
2018-12-13T10:29:55.964Z,62.70
2018-12-13T10:32:23.433Z,62.20
2018-12-13T10:34:50.914Z,61.30
2018-12-13T10:37:18.375Z,61.20
2018-12-13T10:39:45.938Z,60.70
2018-12-13T10:42:13.454Z,60.60
2018-12-13T10:44:41.857Z,61.10
2018-12-13T10:47:09.295Z,61.00
2018-12-13T10:49:36.824Z,60.90
2018-12-13T10:52:04.332Z,59.50
2018-12-13T10:54:31.808Z,59.40
2018-12-13T10:56:59.362Z,58.60
2018-12-13T10:59:26.805Z,58.10
2018-12-13T11:02:00.098Z,58.80
2018-12-13T11:04:27.601Z,58.80
2018-12-13T11:06:55.079Z,59.20
2018-12-13T11:09:22.517Z,58.30
2018-12-13T11:11:49.966Z,58.80
2018-12-13T11:14:17.461Z,58.30
2018-12-13T11:16:44.910Z,58.00
2018-12-13T11:19:12.481Z,58.90
2018-12-13T11:21:39.981Z,58.30
2018-12-13T11:24:07.422Z,58.30
2018-12-13T11:26:34.891Z,58.30
2018-12-13T11:29:14.208Z,58.40
2018-12-13T11:31:42.006Z,58.20
2018-12-13T11:34:09.449Z,59.50
2018-12-13T11:36:36.924Z,59.50
2018-12-13T11:39:05.853Z,59.90
2018-12-13T11:41:33.511Z,58.40
2018-12-13T11:44:01.043Z,58.50
2018-12-13T11:46:28.499Z,57.70
2018-12-13T11:48:55.996Z,58.80
2018-12-13T11:51:23.446Z,58.20
2018-12-13T11:53:51.519Z,57.90
2018-12-13T11:56:19.074Z,58.10
2018-12-13T11:58:46.787Z,57.30
2018-12-13T12:01:14.398Z,57.30
2018-12-13T12:03:41.837Z,57.40
2018-12-13T12:06:09.288Z,56.90
2018-12-13T12:08:36.741Z,57.40
2018-12-13T12:11:04.252Z,57.70
2018-12-13T12:13:31.708Z,57.00
2018-12-13T12:15:59.201Z,57.60
2018-12-13T12:18:26.696Z,56.40
2018-12-13T12:20:54.126Z,57.20
2018-12-13T12:23:21.601Z,57.60
2018-12-13T12:25:49.153Z,57.70
2018-12-13T12:28:16.641Z,56.90
2018-12-13T12:30:44.147Z,56.30
2018-12-13T12:33:11.588Z,56.50
2018-12-13T12:35:39.075Z,56.40
2018-12-13T12:38:06.568Z,55.60
2018-12-13T12:40:34.029Z,56.50
2018-12-13T12:43:01.484Z,55.80
2018-12-13T12:45:28.947Z,56.80
2018-12-13T12:47:56.441Z,55.90
2018-12-13T12:50:23.908Z,55.10
2018-12-13T12:52:51.360Z,56.10
2018-12-13T12:55:18.822Z,56.50
2018-12-13T12:57:46.283Z,54.90
2018-12-13T13:00:13.756Z,55.90
2018-12-13T13:02:41.754Z,56.00
2018-12-13T13:05:09.263Z,55.90
2018-12-13T13:07:36.714Z,55.80
2018-12-13T13:10:05.031Z,55.80
2018-12-13T13:12:32.493Z,56.10
2018-12-13T13:14:59.934Z,57.00
2018-12-13T13:17:27.406Z,56.30
2018-12-13T13:19:54.874Z,55.90
2018-12-13T13:22:22.379Z,55.00
2018-12-13T13:24:49.861Z,56.10
2018-12-13T13:27:17.307Z,55.40
2018-12-13T13:29:44.784Z,56.30
2018-12-13T13:32:12.240Z,55.40
2018-12-13T13:34:39.721Z,55.50
2018-12-13T13:37:07.165Z,54.40
2018-12-13T13:39:34.635Z,54.70
2018-12-13T13:42:02.076Z,55.20
2018-12-13T13:44:31.498Z,54.40
2018-12-13T13:46:58.932Z,53.90
2018-12-13T13:49:26.367Z,53.10
2018-12-13T13:51:53.864Z,53.90
2018-12-13T13:54:21.384Z,53.60
2018-12-13T13:56:48.909Z,53.60
2018-12-13T13:59:16.348Z,54.10
2018-12-13T14:01:43.784Z,55.10
2018-12-13T14:04:11.245Z,55.00
2018-12-13T14:06:38.694Z,55.00
2018-12-13T14:09:07.165Z,55.40
2018-12-13T14:11:34.612Z,54.80
2018-12-13T14:14:02.222Z,54.20
2018-12-13T14:16:29.711Z,54.80
2018-12-13T14:18:57.167Z,54.60
2018-12-13T14:21:24.624Z,54.40
2018-12-13T14:23:52.156Z,54.30
2018-12-13T14:26:19.610Z,54.20
2018-12-13T14:28:47.128Z,54.10
2018-12-13T14:31:14.656Z,54.10
2018-12-13T14:33:42.142Z,55.20
2018-12-13T14:36:09.614Z,54.50
2018-12-13T14:38:37.102Z,54.00
2018-12-13T14:41:04.550Z,54.60
2018-12-13T14:43:32.047Z,54.10
2018-12-13T14:45:59.636Z,53.60
2018-12-13T14:48:27.084Z,52.70
2018-12-13T14:50:54.530Z,53.10
2018-12-13T14:53:22.005Z,52.70
2018-12-13T14:55:49.460Z,53.00
2018-12-13T14:58:16.948Z,52.60
2018-12-13T15:00:44.397Z,52.90
2018-12-13T15:03:11.888Z,53.50
2018-12-13T15:05:39.310Z,53.30
2018-12-13T15:08:06.812Z,52.80
2018-12-13T15:10:34.230Z,53.30
2018-12-13T15:13:01.714Z,52.90
2018-12-13T15:15:29.180Z,52.70
2018-12-13T15:17:56.656Z,53.60
2018-12-13T15:20:24.154Z,53.20
2018-12-13T15:22:51.596Z,52.30
2018-12-13T15:25:19.066Z,52.40
2018-12-13T15:27:46.520Z,52.30
2018-12-13T15:30:13.998Z,52.70
2018-12-13T15:32:41.445Z,53.00
2018-12-13T15:35:08.950Z,53.50
2018-12-13T15:37:36.458Z,53.30
2018-12-13T15:40:04.055Z,53.00
2018-12-13T15:42:31.512Z,53.40
2018-12-13T15:44:59.273Z,53.70
2018-12-13T15:47:26.768Z,53.10
2018-12-13T15:49:54.207Z,53.70
2018-12-13T15:52:21.679Z,54.20
2018-12-13T15:54:49.159Z,53.20
2018-12-13T15:57:16.628Z,53.80
2018-12-13T15:59:44.079Z,53.70
2018-12-13T16:02:11.515Z,53.90
2018-12-13T16:04:38.990Z,54.30
2018-12-13T16:07:06.436Z,54.70
2018-12-13T16:09:33.888Z,54.30
2018-12-13T16:12:01.339Z,54.50
2018-12-13T16:14:29.491Z,54.80
2018-12-13T16:16:57.567Z,54.90
2018-12-13T16:19:25.235Z,54.90
2018-12-13T16:21:52.833Z,54.70
2018-12-13T16:24:20.341Z,54.60
2018-12-13T16:26:47.865Z,54.90
2018-12-13T16:29:15.304Z,54.80
2018-12-13T16:31:42.779Z,55.10
2018-12-13T16:34:10.321Z,54.50
2018-12-13T16:36:37.818Z,54.60
2018-12-13T16:39:07.742Z,55.70
2018-12-13T16:41:35.294Z,54.10
2018-12-13T16:44:02.747Z,54.20
2018-12-13T16:46:30.223Z,54.00
2018-12-13T16:48:57.775Z,54.30
2018-12-13T16:51:25.221Z,53.90
2018-12-13T16:53:52.714Z,53.90
2018-12-13T16:56:20.189Z,53.90
2018-12-13T16:58:47.712Z,53.90
2018-12-13T17:01:15.176Z,54.60
2018-12-13T17:03:42.708Z,54.80
2018-12-13T17:06:10.213Z,55.10
2018-12-13T17:08:37.955Z,55.20
2018-12-13T17:11:05.652Z,55.00
2018-12-13T17:13:33.165Z,54.80
2018-12-13T17:16:00.704Z,55.00
2018-12-13T17:18:28.157Z,55.40
2018-12-13T17:20:56.234Z,55.50
2018-12-13T17:23:23.767Z,55.50
2018-12-13T17:25:51.215Z,56.10
2018-12-13T17:28:18.676Z,55.70
2018-12-13T17:30:46.149Z,55.60
2018-12-13T17:33:13.591Z,56.00
2018-12-13T17:35:41.089Z,56.00
2018-12-13T17:38:08.548Z,55.00
2018-12-13T17:40:36.010Z,55.50
2018-12-13T17:43:03.461Z,56.00
2018-12-13T17:45:32.664Z,56.40
2018-12-13T17:48:00.215Z,56.00
2018-12-13T17:50:27.718Z,56.20
2018-12-13T17:52:55.174Z,56.60
2018-12-13T17:55:23.742Z,56.20
2018-12-13T17:57:53.272Z,56.30
2018-12-13T18:00:30.868Z,56.70
2018-12-13T18:02:58.392Z,57.00
2018-12-13T18:05:26.040Z,57.20
2018-12-13T18:07:53.540Z,56.30
2018-12-13T18:10:21.104Z,56.20
2018-12-13T18:12:48.651Z,56.60
2018-12-13T18:15:16.949Z,57.00
2018-12-13T18:17:44.703Z,57.20
2018-12-13T18:20:12.307Z,57.00
2018-12-13T18:22:39.894Z,57.40
2018-12-13T18:25:07.507Z,57.40
2018-12-13T18:27:34.971Z,58.30
2018-12-13T18:30:02.497Z,57.40
2018-12-13T18:32:29.979Z,57.90
2018-12-13T18:34:57.438Z,57.00
2018-12-13T18:37:24.960Z,56.90
2018-12-13T18:39:52.713Z,57.50
2018-12-13T18:42:20.167Z,57.80
2018-12-13T18:44:47.662Z,58.20
2018-12-13T18:47:15.124Z,58.50
2018-12-13T18:49:42.601Z,58.70
2018-12-13T18:52:10.118Z,59.20
2018-12-13T18:54:37.561Z,59.40
2018-12-13T18:57:05.164Z,59.60
2018-12-13T18:59:32.636Z,59.10
2018-12-13T19:02:00.106Z,58.90
2018-12-13T19:04:27.690Z,59.20
2018-12-13T19:06:55.230Z,58.90
2018-12-13T19:09:22.728Z,59.00
2018-12-13T19:11:50.238Z,59.80
2018-12-13T19:14:17.748Z,60.90
2018-12-13T19:16:45.459Z,60.10
2018-12-13T19:19:12.957Z,59.40
2018-12-13T19:21:40.461Z,58.80
2018-12-13T19:24:08.177Z,59.60
2018-12-13T19:26:35.824Z,60.40
2018-12-13T19:29:03.300Z,60.80
2018-12-13T19:31:31.367Z,60.70
2018-12-13T19:33:58.822Z,61.10
2018-12-13T19:36:26.287Z,61.20
2018-12-13T19:38:53.765Z,62.90
2018-12-13T19:41:21.237Z,62.70
2018-12-13T19:43:48.717Z,62.20
2018-12-13T19:46:16.163Z,61.40
2018-12-13T19:48:43.706Z,60.80
2018-12-13T19:51:11.228Z,60.80
2018-12-13T19:53:38.710Z,60.90
2018-12-13T19:56:06.173Z,61.10
2018-12-13T19:58:33.684Z,61.00
2018-12-13T20:01:01.267Z,60.60
2018-12-13T20:03:28.743Z,61.10
2018-12-13T20:05:56.192Z,61.00
2018-12-13T20:08:23.665Z,61.10
2018-12-13T20:10:54.636Z,61.60
2018-12-13T20:13:20.720Z,61.50
2018-12-13T20:15:48.223Z,61.30
2018-12-13T20:18:15.766Z,61.30
2018-12-13T20:20:43.238Z,61.20
2018-12-13T20:23:10.798Z,61.00
2018-12-13T20:25:38.293Z,61.10
2018-12-13T20:28:05.818Z,61.10
2018-12-13T20:30:33.300Z,60.00
2018-12-13T20:33:00.760Z,59.60
2018-12-13T20:35:28.376Z,60.00
2018-12-13T20:37:55.872Z,58.40
2018-12-13T20:40:23.336Z,57.20
2018-12-13T20:42:50.825Z,57.40
2018-12-13T20:45:18.280Z,57.30
2018-12-13T20:47:45.711Z,57.70
2018-12-13T20:50:13.337Z,57.90
2018-12-13T20:52:41.005Z,57.10
2018-12-13T20:55:08.711Z,57.60
2018-12-13T20:57:36.141Z,58.10
2018-12-13T21:00:07.271Z,57.50
2018-12-13T21:02:34.751Z,57.70
2018-12-13T21:05:02.284Z,58.30
2018-12-13T21:07:33.627Z,58.40
2018-12-13T21:10:01.300Z,57.90
2018-12-13T21:12:28.998Z,58.10
2018-12-13T21:14:56.455Z,59.30
2018-12-13T21:17:23.896Z,58.30
2018-12-13T21:19:51.728Z,58.70
2018-12-13T21:22:19.189Z,57.90
2018-12-13T21:24:46.636Z,58.10
2018-12-13T21:27:14.224Z,57.70
2018-12-13T21:29:41.871Z,57.00
2018-12-13T21:32:09.368Z,57.50
2018-12-13T21:34:36.853Z,57.80
2018-12-13T21:37:04.361Z,58.00
2018-12-13T21:39:31.820Z,58.40
2018-12-13T21:41:59.337Z,58.80
2018-12-13T21:44:26.796Z,58.80
2018-12-13T21:46:54.269Z,58.60
2018-12-13T21:49:21.737Z,58.90
2018-12-13T21:51:49.288Z,58.60
2018-12-13T21:54:16.819Z,58.50
2018-12-13T21:56:44.710Z,58.50
2018-12-13T21:59:12.189Z,58.80
2018-12-13T22:01:39.781Z,58.00
2018-12-13T22:04:07.263Z,58.10
2018-12-13T22:06:34.718Z,57.70
2018-12-13T22:09:02.175Z,58.10
2018-12-13T22:11:29.617Z,58.20
2018-12-13T22:13:57.124Z,58.20
2018-12-13T22:16:24.570Z,58.10
2018-12-13T22:18:52.042Z,58.00
2018-12-13T22:21:19.520Z,57.70
2018-12-13T22:23:49.000Z,57.10
2018-12-13T22:26:16.448Z,57.40
2018-12-13T22:28:43.910Z,56.80
2018-12-13T22:31:11.396Z,56.70
2018-12-13T22:33:38.925Z,57.20
2018-12-13T22:36:06.494Z,57.40
2018-12-13T22:38:33.945Z,57.30
2018-12-13T22:41:01.397Z,57.30
2018-12-13T22:43:28.863Z,56.90
2018-12-13T22:45:56.401Z,57.50
2018-12-13T22:48:23.949Z,57.20
2018-12-13T22:50:51.510Z,57.00
2018-12-13T22:53:18.989Z,57.20
2018-12-13T22:55:46.864Z,57.70
2018-12-13T22:58:14.324Z,57.50
2018-12-13T23:00:42.093Z,57.50
2018-12-13T23:03:09.533Z,58.60
2018-12-13T23:05:37.881Z,59.30
2018-12-13T23:10:52.977Z,59.20
2018-12-13T23:13:20.522Z,58.80
2018-12-13T23:15:48.048Z,58.60
2018-12-13T23:18:16.609Z,58.50
2018-12-13T23:20:44.068Z,58.50
2018-12-13T23:23:11.540Z,58.40
2018-12-13T23:25:45.159Z,58.40
2018-12-13T23:28:12.617Z,58.70
2018-12-13T23:30:40.547Z,58.40
2018-12-13T23:33:08.033Z,57.50
2018-12-13T23:35:35.489Z,57.80
2018-12-13T23:38:02.974Z,58.30
2018-12-13T23:40:30.444Z,57.20
2018-12-13T23:42:57.896Z,57.80
2018-12-13T23:45:25.348Z,57.60
2018-12-13T23:47:52.793Z,57.80
2018-12-13T23:50:20.232Z,57.50
2018-12-13T23:52:47.672Z,57.60
2018-12-13T23:55:15.137Z,57.60
2018-12-13T23:57:42.651Z,57.60
